sensor_id;sensor_type;location;lat;lon;timestamp;pressure;altitude;pressure_sealevel;temperature;humidity
35553;BME280;21656;46.054;13.614;2023-03-24T00:00:00;100592.69;;;8.35;100.00
35553;BME280;21656;46.054;13.614;2023-03-24T00:02:26;100592.81;;;8.33;100.00
35553;BME280;21656;46.054;13.614;2023-03-24T00:04:52;100599.16;;;8.45;100.00
35553;BME280;21656;46.054;13.614;2023-03-24T00:07:22;100594.78;;;8.44;100.00
35553;BME280;21656;46.054;13.614;2023-03-24T00:09:47;100596.47;;;8.45;100.00
35553;BME280;21656;46.054;13.614;2023-03-24T00:12:13;100593.16;;;8.41;100.00
35553;BME280;21656;46.054;13.614;2023-03-24T00:14:38;100599.25;;;8.31;100.00
35553;BME280;21656;46.054;13.614;2023-03-24T00:17:05;100592.03;;;8.18;100.00
35553;BME280;21656;46.054;13.614;2023-03-24T00:19:30;100587.41;;;8.20;100.00
35553;BME280;21656;46.054;13.614;2023-03-24T00:21:58;100590.66;;;8.25;100.00
35553;BME280;21656;46.054;13.614;2023-03-24T00:24:24;100587.41;;;8.20;100.00
35553;BME280;21656;46.054;13.614;2023-03-24T00:26:50;100589.13;;;8.21;100.00
35553;BME280;21656;46.054;13.614;2023-03-24T00:29:15;100587.50;;;8.19;100.00
35553;BME280;21656;46.054;13.614;2023-03-24T00:31:41;100587.28;;;8.22;100.00
35553;BME280;21656;46.054;13.614;2023-03-24T00:34:07;100586.53;;;8.20;100.00
35553;BME280;21656;46.054;13.614;2023-03-24T00:36:33;100588.03;;;8.11;100.00
35553;BME280;21656;46.054;13.614;2023-03-24T00:38:59;100578.47;;;8.07;100.00
35553;BME280;21656;46.054;13.614;2023-03-24T00:41:24;100577.75;;;8.18;100.00
35553;BME280;21656;46.054;13.614;2023-03-24T00:43:53;100576.63;;;8.08;100.00
35553;BME280;21656;46.054;13.614;2023-03-24T00:46:18;100583.72;;;8.09;100.00
35553;BME280;21656;46.054;13.614;2023-03-24T00:49:00;100577.38;;;8.10;100.00
35553;BME280;21656;46.054;13.614;2023-03-24T00:51:36;100578.66;;;8.04;100.00
35553;BME280;21656;46.054;13.614;2023-03-24T00:54:02;100578.59;;;8.06;100.00
35553;BME280;21656;46.054;13.614;2023-03-24T00:56:29;100581.06;;;8.09;100.00
35553;BME280;21656;46.054;13.614;2023-03-24T00:58:55;100574.94;;;8.19;100.00
35553;BME280;21656;46.054;13.614;2023-03-24T01:01:22;100571.41;;;8.19;100.00
35553;BME280;21656;46.054;13.614;2023-03-24T01:03:47;100567.53;;;8.10;100.00
35553;BME280;21656;46.054;13.614;2023-03-24T01:06:15;100566.78;;;8.08;100.00
35553;BME280;21656;46.054;13.614;2023-03-24T01:08:40;100568.56;;;7.95;100.00
35553;BME280;21656;46.054;13.614;2023-03-24T01:11:05;100564.81;;;7.97;100.00
35553;BME280;21656;46.054;13.614;2023-03-24T01:13:31;100566.94;;;7.92;100.00
35553;BME280;21656;46.054;13.614;2023-03-24T01:15:58;100556.34;;;7.91;100.00
35553;BME280;21656;46.054;13.614;2023-03-24T01:18:23;100566.50;;;7.86;100.00
35553;BME280;21656;46.054;13.614;2023-03-24T01:20:49;100563.53;;;7.90;100.00
35553;BME280;21656;46.054;13.614;2023-03-24T01:23:15;100560.81;;;7.77;100.00
35553;BME280;21656;46.054;13.614;2023-03-24T01:25:41;100556.09;;;7.81;100.00
35553;BME280;21656;46.054;13.614;2023-03-24T01:28:09;100556.63;;;7.86;100.00
35553;BME280;21656;46.054;13.614;2023-03-24T01:30:35;100558.69;;;7.82;100.00
35553;BME280;21656;46.054;13.614;2023-03-24T01:33:00;100561.75;;;7.76;100.00
35553;BME280;21656;46.054;13.614;2023-03-24T01:35:25;100566.25;;;7.76;100.00
35553;BME280;21656;46.054;13.614;2023-03-24T01:37:51;100561.34;;;7.82;100.00
35553;BME280;21656;46.054;13.614;2023-03-24T01:40:21;100569.91;;;7.75;100.00
35553;BME280;21656;46.054;13.614;2023-03-24T01:42:46;100564.44;;;7.76;100.00
35553;BME280;21656;46.054;13.614;2023-03-24T07:08:31;100506.72;;;9.84;100.00
35553;BME280;21656;46.054;13.614;2023-03-24T07:10:58;100511.19;;;9.96;100.00
35553;BME280;21656;46.054;13.614;2023-03-24T07:13:23;100523.81;;;10.07;100.00
35553;BME280;21656;46.054;13.614;2023-03-24T07:15:48;100529.59;;;10.13;100.00
35553;BME280;21656;46.054;13.614;2023-03-24T07:18:13;100531.19;;;10.27;100.00
35553;BME280;21656;46.054;13.614;2023-03-24T07:20:39;100533.97;;;10.38;100.00
35553;BME280;21656;46.054;13.614;2023-03-24T07:23:05;100537.66;;;10.60;100.00
35553;BME280;21656;46.054;13.614;2023-03-24T07:25:30;100534.22;;;10.80;100.00
35553;BME280;21656;46.054;13.614;2023-03-24T07:27:56;100533.47;;;11.01;100.00
35553;BME280;21656;46.054;13.614;2023-03-24T07:30:21;100532.72;;;11.21;100.00
35553;BME280;21656;46.054;13.614;2023-03-24T07:32:47;100528.06;;;11.35;100.00
35553;BME280;21656;46.054;13.614;2023-03-24T07:35:13;100528.28;;;11.43;100.00
35553;BME280;21656;46.054;13.614;2023-03-24T07:37:40;100521.41;;;11.50;100.00
35553;BME280;21656;46.054;13.614;2023-03-24T07:40:05;100532.13;;;11.61;100.00
35553;BME280;21656;46.054;13.614;2023-03-24T07:42:34;100516.94;;;11.60;100.00
35553;BME280;21656;46.054;13.614;2023-03-24T07:44:59;100514.84;;;11.64;100.00
35553;BME280;21656;46.054;13.614;2023-03-24T07:47:24;100508.41;;;11.76;100.00
35553;BME280;21656;46.054;13.614;2023-03-24T07:49:50;100510.59;;;11.93;100.00
35553;BME280;21656;46.054;13.614;2023-03-24T07:52:15;100510.94;;;12.00;100.00
35553;BME280;21656;46.054;13.614;2023-03-24T07:54:40;100506.03;;;12.15;100.00
35553;BME280;21656;46.054;13.614;2023-03-24T07:57:06;100502.06;;;12.40;100.00
35553;BME280;21656;46.054;13.614;2023-03-24T07:59:31;100506.34;;;12.64;100.00
35553;BME280;21656;46.054;13.614;2023-03-24T08:01:58;100503.31;;;12.88;100.00
35553;BME280;21656;46.054;13.614;2023-03-24T08:04:23;100495.41;;;13.06;100.00
35553;BME280;21656;46.054;13.614;2023-03-24T08:06:48;100493.59;;;13.26;100.00
35553;BME280;21656;46.054;13.614;2023-03-24T08:09:14;100492.94;;;13.43;100.00
35553;BME280;21656;46.054;13.614;2023-03-24T08:11:39;100484.44;;;13.48;99.77
35553;BME280;21656;46.054;13.614;2023-03-24T08:14:04;100482.59;;;13.58;100.00
35553;BME280;21656;46.054;13.614;2023-03-24T08:16:30;100482.28;;;13.71;100.00
35553;BME280;21656;46.054;13.614;2023-03-24T08:18:55;100484.28;;;13.98;100.00
35553;BME280;21656;46.054;13.614;2023-03-24T08:21:24;100477.38;;;14.23;98.68
35553;BME280;21656;46.054;13.614;2023-03-24T08:23:49;100474.50;;;14.44;96.76
35553;BME280;21656;46.054;13.614;2023-03-24T08:26:15;100479.44;;;14.58;92.71
35553;BME280;21656;46.054;13.614;2023-03-24T08:28:40;100470.56;;;14.66;91.16
35553;BME280;21656;46.054;13.614;2023-03-24T08:31:06;100475.59;;;14.61;91.52
35553;BME280;21656;46.054;13.614;2023-03-24T08:33:31;100475.38;;;14.82;92.96
35553;BME280;21656;46.054;13.614;2023-03-24T08:35:57;100462.41;;;15.03;92.07
35553;BME280;21656;46.054;13.614;2023-03-24T08:38:24;100467.41;;;15.26;91.61
35553;BME280;21656;46.054;13.614;2023-03-24T08:40:54;100462.66;;;15.55;89.66
35553;BME280;21656;46.054;13.614;2023-03-24T08:43:20;100461.56;;;15.84;85.32
35553;BME280;21656;46.054;13.614;2023-03-24T08:45:47;100467.28;;;15.99;83.08
35553;BME280;21656;46.054;13.614;2023-03-24T08:48:12;100464.88;;;16.14;83.42
35553;BME280;21656;46.054;13.614;2023-03-24T08:50:38;100461.78;;;16.35;82.28
35553;BME280;21656;46.054;13.614;2023-03-24T08:53:04;100462.25;;;16.56;78.91
35553;BME280;21656;46.054;13.614;2023-03-24T08:55:30;100460.09;;;16.68;77.52
35553;BME280;21656;46.054;13.614;2023-03-24T08:57:55;100464.13;;;16.90;76.90
35553;BME280;21656;46.054;13.614;2023-03-24T09:00:20;100456.94;;;16.81;73.83
35553;BME280;21656;46.054;13.614;2023-03-24T09:02:50;100466.78;;;16.74;73.38
35553;BME280;21656;46.054;13.614;2023-03-24T09:05:16;100451.84;;;16.78;72.55
35553;BME280;21656;46.054;13.614;2023-03-24T09:07:45;100465.81;;;16.83;74.26
35553;BME280;21656;46.054;13.614;2023-03-24T09:10:10;100465.19;;;16.97;75.52
35553;BME280;21656;46.054;13.614;2023-03-24T09:12:36;100459.28;;;17.10;74.21
35553;BME280;21656;46.054;13.614;2023-03-24T09:15:03;100453.50;;;17.13;74.27
35553;BME280;21656;46.054;13.614;2023-03-24T09:17:28;100456.66;;;17.43;75.13
35553;BME280;21656;46.054;13.614;2023-03-24T09:19:53;100451.91;;;17.45;72.17
35553;BME280;21656;46.054;13.614;2023-03-24T09:22:19;100450.31;;;17.34;72.73
35553;BME280;21656;46.054;13.614;2023-03-24T09:24:44;100444.09;;;17.50;72.45
35553;BME280;21656;46.054;13.614;2023-03-24T09:27:13;100446.31;;;17.63;74.78
35553;BME280;21656;46.054;13.614;2023-03-24T09:29:39;100443.75;;;17.77;73.83
35553;BME280;21656;46.054;13.614;2023-03-24T09:32:04;100445.81;;;17.92;73.16
35553;BME280;21656;46.054;13.614;2023-03-24T09:34:29;100442.94;;;18.02;72.89
35553;BME280;21656;46.054;13.614;2023-03-24T09:36:56;100442.03;;;17.76;72.83
35553;BME280;21656;46.054;13.614;2023-03-24T09:39:21;100446.84;;;17.99;73.03
35553;BME280;21656;46.054;13.614;2023-03-24T09:41:47;100443.44;;;18.13;71.55
35553;BME280;21656;46.054;13.614;2023-03-24T09:44:27;100444.44;;;18.12;72.51
35553;BME280;21656;46.054;13.614;2023-03-24T09:49:40;100431.59;;;18.54;69.27
35553;BME280;21656;46.054;13.614;2023-03-24T09:52:11;100443.38;;;18.46;67.56
35553;BME280;21656;46.054;13.614;2023-03-24T09:57:19;100438.53;;;18.65;66.89
35553;BME280;21656;46.054;13.614;2023-03-24T09:59:47;100428.63;;;18.80;67.04
35553;BME280;21656;46.054;13.614;2023-03-24T10:02:13;100418.50;;;18.89;65.78
35553;BME280;21656;46.054;13.614;2023-03-24T10:04:40;100427.00;;;19.02;65.12
35553;BME280;21656;46.054;13.614;2023-03-24T10:09:41;100421.78;;;19.15;66.24
35553;BME280;21656;46.054;13.614;2023-03-24T10:22:57;100429.72;;;19.02;66.01
35553;BME280;21656;46.054;13.614;2023-03-24T10:28:19;100437.69;;;18.64;68.39
35553;BME280;21656;46.054;13.614;2023-03-24T10:30:45;100429.31;;;18.82;69.85
35553;BME280;21656;46.054;13.614;2023-03-24T10:33:11;100427.19;;;19.23;68.69
35553;BME280;21656;46.054;13.614;2023-03-24T10:35:50;100432.75;;;19.38;67.77
35553;BME280;21656;46.054;13.614;2023-03-24T10:38:19;100421.97;;;19.68;67.11
35553;BME280;21656;46.054;13.614;2023-03-24T10:40:45;100423.63;;;19.92;65.34
35553;BME280;21656;46.054;13.614;2023-03-24T10:43:12;100422.16;;;20.04;63.92
35553;BME280;21656;46.054;13.614;2023-03-24T10:45:39;100410.81;;;20.45;63.84
35553;BME280;21656;46.054;13.614;2023-03-24T10:48:06;100419.00;;;20.30;62.09
35553;BME280;21656;46.054;13.614;2023-03-24T10:50:33;100416.91;;;19.80;62.09
35553;BME280;21656;46.054;13.614;2023-03-24T10:53:00;100416.81;;;19.73;62.54
35553;BME280;21656;46.054;13.614;2023-03-24T10:55:34;100408.16;;;19.84;63.09
35553;BME280;21656;46.054;13.614;2023-03-24T10:58:02;100400.50;;;20.03;63.66
35553;BME280;21656;46.054;13.614;2023-03-24T11:00:30;100396.94;;;20.17;62.89
35553;BME280;21656;46.054;13.614;2023-03-24T11:03:00;100400.00;;;19.99;62.22
35553;BME280;21656;46.054;13.614;2023-03-24T11:05:28;100398.69;;;19.95;63.59
35553;BME280;21656;46.054;13.614;2023-03-24T11:07:56;100402.53;;;19.86;61.83
35553;BME280;21656;46.054;13.614;2023-03-24T11:10:24;100397.63;;;19.81;63.87
35553;BME280;21656;46.054;13.614;2023-03-24T11:17:41;100392.28;;;19.88;62.36
35553;BME280;21656;46.054;13.614;2023-03-24T11:20:18;100389.72;;;19.86;60.98
35553;BME280;21656;46.054;13.614;2023-03-24T11:22:54;100384.41;;;19.70;61.13
35553;BME280;21656;46.054;13.614;2023-03-24T11:25:28;100386.16;;;19.63;62.90
35553;BME280;21656;46.054;13.614;2023-03-24T11:27:58;100382.03;;;19.67;62.67
35553;BME280;21656;46.054;13.614;2023-03-24T11:30:27;100381.69;;;19.62;62.16
35553;BME280;21656;46.054;13.614;2023-03-24T11:32:55;100373.69;;;19.60;62.52
35553;BME280;21656;46.054;13.614;2023-03-24T11:35:21;100372.13;;;19.66;61.57
35553;BME280;21656;46.054;13.614;2023-03-24T11:37:47;100370.97;;;19.60;62.00
35553;BME280;21656;46.054;13.614;2023-03-24T11:40:14;100385.94;;;19.18;63.64
35553;BME280;21656;46.054;13.614;2023-03-24T11:45:22;100375.78;;;19.04;66.41
35553;BME280;21656;46.054;13.614;2023-03-24T11:47:49;100388.25;;;19.07;67.35
35553;BME280;21656;46.054;13.614;2023-03-24T11:50:33;100378.09;;;18.92;65.77
35553;BME280;21656;46.054;13.614;2023-03-24T11:58:33;100374.75;;;18.74;70.68
35553;BME280;21656;46.054;13.614;2023-03-24T12:01:05;100376.13;;;18.78;70.02
35553;BME280;21656;46.054;13.614;2023-03-24T12:11:35;100370.13;;;18.82;70.65
35553;BME280;21656;46.054;13.614;2023-03-24T12:14:02;100368.56;;;18.88;70.16
35553;BME280;21656;46.054;13.614;2023-03-24T12:24:19;100357.97;;;18.46;69.58
35553;BME280;21656;46.054;13.614;2023-03-24T12:26:50;100359.69;;;18.47;70.63
35553;BME280;21656;46.054;13.614;2023-03-24T12:39:39;100335.97;;;18.55;69.39
35553;BME280;21656;46.054;13.614;2023-03-24T12:42:16;100332.50;;;18.70;68.77
35553;BME280;21656;46.054;13.614;2023-03-24T12:49:49;100340.56;;;18.94;65.82
35553;BME280;21656;46.054;13.614;2023-03-24T12:52:39;100346.25;;;18.84;66.02
35553;BME280;21656;46.054;13.614;2023-03-24T12:56:10;100345.66;;;18.97;66.42
35553;BME280;21656;46.054;13.614;2023-03-24T12:58:16;100324.75;;;19.36;64.23
35553;BME280;21656;46.054;13.614;2023-03-24T13:06:10;100308.44;;;19.27;60.20
35553;BME280;21656;46.054;13.614;2023-03-24T13:08:37;100311.03;;;18.98;60.22
35553;BME280;21656;46.054;13.614;2023-03-24T13:11:04;100314.19;;;18.87;62.50
35553;BME280;21656;46.054;13.614;2023-03-24T13:13:33;100317.47;;;18.74;63.02
35553;BME280;21656;46.054;13.614;2023-03-24T13:16:04;100312.38;;;18.71;63.89
35553;BME280;21656;46.054;13.614;2023-03-24T13:23:37;100305.88;;;18.80;63.84
35553;BME280;21656;46.054;13.614;2023-03-24T13:31:13;100316.59;;;18.42;62.82
35553;BME280;21656;46.054;13.614;2023-03-24T13:33:40;100325.94;;;18.08;65.51
35553;BME280;21656;46.054;13.614;2023-03-24T13:38:52;100330.94;;;17.55;70.53
35553;BME280;21656;46.054;13.614;2023-03-24T13:41:20;100327.88;;;17.42;70.43
35553;BME280;21656;46.054;13.614;2023-03-24T13:43:57;100329.56;;;17.19;70.89
35553;BME280;21656;46.054;13.614;2023-03-24T13:46:23;100325.28;;;17.08;74.24
35553;BME280;21656;46.054;13.614;2023-03-24T13:48:50;100334.44;;;16.99;74.48
35553;BME280;21656;46.054;13.614;2023-03-24T13:51:17;100328.66;;;16.85;72.86
35553;BME280;21656;46.054;13.614;2023-03-24T13:56:08;100324.25;;;16.93;74.29
35553;BME280;21656;46.054;13.614;2023-03-24T14:03:35;100312.34;;;16.94;73.24
35553;BME280;21656;46.054;13.614;2023-03-24T14:06:03;100313.88;;;16.88;74.45
35553;BME280;21656;46.054;13.614;2023-03-24T14:08:33;100314.72;;;16.88;75.41
35553;BME280;21656;46.054;13.614;2023-03-24T14:11:04;100314.91;;;16.79;75.95
35553;BME280;21656;46.054;13.614;2023-03-24T14:13:33;100323.16;;;16.69;77.27
35553;BME280;21656;46.054;13.614;2023-03-24T14:15:59;100327.75;;;16.68;77.11
35553;BME280;21656;46.054;13.614;2023-03-24T14:18:44;100312.97;;;16.71;76.20
35553;BME280;21656;46.054;13.614;2023-03-24T14:21:12;100313.63;;;16.73;73.09
35553;BME280;21656;46.054;13.614;2023-03-24T14:23:47;100316.88;;;16.68;74.08
35553;BME280;21656;46.054;13.614;2023-03-24T14:28:47;100316.19;;;16.66;75.80
35553;BME280;21656;46.054;13.614;2023-03-24T14:31:17;100309.88;;;16.66;77.50
35553;BME280;21656;46.054;13.614;2023-03-24T14:36:26;100322.91;;;16.46;81.62
35553;BME280;21656;46.054;13.614;2023-03-24T14:38:54;100326.56;;;16.29;85.50
35553;BME280;21656;46.054;13.614;2023-03-24T14:41:27;100320.56;;;16.17;89.63
35553;BME280;21656;46.054;13.614;2023-03-24T14:43:56;100324.13;;;16.17;94.85
35553;BME280;21656;46.054;13.614;2023-03-24T14:51:29;100315.19;;;15.91;100.00
35553;BME280;21656;46.054;13.614;2023-03-24T14:54:00;100320.94;;;15.88;100.00
35553;BME280;21656;46.054;13.614;2023-03-24T14:56:27;100318.84;;;15.81;100.00
35553;BME280;21656;46.054;13.614;2023-03-24T14:58:55;100327.31;;;15.78;100.00
35553;BME280;21656;46.054;13.614;2023-03-24T15:01:26;100323.44;;;15.63;100.00
35553;BME280;21656;46.054;13.614;2023-03-24T15:04:06;100314.28;;;15.64;100.00
35553;BME280;21656;46.054;13.614;2023-03-24T15:06:31;100301.34;;;15.58;100.00
35553;BME280;21656;46.054;13.614;2023-03-24T15:08:58;100303.94;;;15.42;100.00
35553;BME280;21656;46.054;13.614;2023-03-24T15:11:33;100305.09;;;15.39;100.00
35553;BME280;21656;46.054;13.614;2023-03-24T15:14:00;100301.03;;;15.35;100.00
35553;BME280;21656;46.054;13.614;2023-03-24T15:16:27;100296.19;;;15.29;100.00
35553;BME280;21656;46.054;13.614;2023-03-24T15:18:57;100301.63;;;15.29;100.00
35553;BME280;21656;46.054;13.614;2023-03-24T15:23:58;100293.31;;;15.04;100.00
35553;BME280;21656;46.054;13.614;2023-03-24T15:26:26;100293.44;;;15.03;100.00
35553;BME280;21656;46.054;13.614;2023-03-24T15:29:01;100291.75;;;15.02;100.00
35553;BME280;21656;46.054;13.614;2023-03-24T15:31:28;100295.44;;;15.01;100.00
35553;BME280;21656;46.054;13.614;2023-03-24T15:34:03;100293.91;;;14.98;100.00
35553;BME280;21656;46.054;13.614;2023-03-24T15:36:32;100295.31;;;15.02;100.00
35553;BME280;21656;46.054;13.614;2023-03-24T15:38:58;100301.13;;;15.07;100.00
35553;BME280;21656;46.054;13.614;2023-03-24T15:41:25;100293.69;;;15.09;100.00
35553;BME280;21656;46.054;13.614;2023-03-24T15:43:51;100287.56;;;15.07;100.00
35553;BME280;21656;46.054;13.614;2023-03-24T15:46:25;100285.16;;;15.04;100.00
35553;BME280;21656;46.054;13.614;2023-03-24T15:48:51;100285.25;;;14.94;100.00
35553;BME280;21656;46.054;13.614;2023-03-24T15:51:17;100291.25;;;14.88;100.00
35553;BME280;21656;46.054;13.614;2023-03-24T15:54:00;100291.25;;;14.88;100.00
35553;BME280;21656;46.054;13.614;2023-03-24T15:56:27;100289.19;;;14.82;100.00
35553;BME280;21656;46.054;13.614;2023-03-24T16:01:25;100292.66;;;14.74;100.00
35553;BME280;21656;46.054;13.614;2023-03-24T16:03:51;100292.50;;;14.76;100.00
35553;BME280;21656;46.054;13.614;2023-03-24T16:06:27;100289.50;;;14.79;100.00
35553;BME280;21656;46.054;13.614;2023-03-24T16:08:58;100296.38;;;14.73;100.00
35553;BME280;21656;46.054;13.614;2023-03-24T16:11:24;100295.44;;;14.65;100.00
35553;BME280;21656;46.054;13.614;2023-03-24T16:13:50;100297.44;;;14.63;100.00
35553;BME280;21656;46.054;13.614;2023-03-24T16:16:26;100299.44;;;14.61;100.00
35553;BME280;21656;46.054;13.614;2023-03-24T16:18:52;100289.63;;;14.60;100.00
35553;BME280;21656;46.054;13.614;2023-03-24T16:21:22;100285.22;;;14.59;100.00
35553;BME280;21656;46.054;13.614;2023-03-24T16:23:49;100286.06;;;14.59;100.00
35553;BME280;21656;46.054;13.614;2023-03-24T16:28:39;100282.81;;;14.56;100.00
35553;BME280;21656;46.054;13.614;2023-03-24T16:31:05;100279.81;;;14.59;100.00
35553;BME280;21656;46.054;13.614;2023-03-24T16:33:31;100277.38;;;14.56;100.00
35553;BME280;21656;46.054;13.614;2023-03-24T16:35:57;100276.53;;;14.55;100.00
35553;BME280;21656;46.054;13.614;2023-03-24T16:38:24;100283.19;;;14.61;100.00
35553;BME280;21656;46.054;13.614;2023-03-24T16:40:53;100281.25;;;14.53;100.00
35553;BME280;21656;46.054;13.614;2023-03-24T16:43:19;100290.09;;;14.55;100.00
35553;BME280;21656;46.054;13.614;2023-03-24T16:45:48;100284.94;;;14.52;100.00
35553;BME280;21656;46.054;13.614;2023-03-24T16:48:14;100280.53;;;14.51;100.00
35553;BME280;21656;46.054;13.614;2023-03-24T16:50:44;100287.13;;;14.48;100.00
35553;BME280;21656;46.054;13.614;2023-03-24T16:53:09;100296.59;;;14.62;100.00
35553;BME280;21656;46.054;13.614;2023-03-24T16:55:35;100287.13;;;14.48;100.00
35553;BME280;21656;46.054;13.614;2023-03-24T16:58:01;100292.81;;;14.45;100.00
35553;BME280;21656;46.054;13.614;2023-03-24T17:00:27;100290.97;;;14.46;100.00
35553;BME280;21656;46.054;13.614;2023-03-24T17:02:53;100291.56;;;14.40;100.00
35553;BME280;21656;46.054;13.614;2023-03-24T17:05:23;100288.00;;;14.39;100.00
35553;BME280;21656;46.054;13.614;2023-03-24T17:07:49;100283.44;;;14.40;100.00
35553;BME280;21656;46.054;13.614;2023-03-24T17:10:16;100283.75;;;14.37;100.00
35553;BME280;21656;46.054;13.614;2023-03-24T17:12:41;100283.03;;;14.35;100.00
35553;BME280;21656;46.054;13.614;2023-03-24T17:15:08;100280.19;;;14.36;100.00
35553;BME280;21656;46.054;13.614;2023-03-24T17:17:38;100287.31;;;14.37;100.00
35553;BME280;21656;46.054;13.614;2023-03-24T17:20:03;100280.28;;;14.44;100.00
35553;BME280;21656;46.054;13.614;2023-03-24T17:22:29;100269.44;;;14.44;100.00
35553;BME280;21656;46.054;13.614;2023-03-24T17:24:55;100275.56;;;14.46;100.00
35553;BME280;21656;46.054;13.614;2023-03-24T17:27:22;100278.81;;;14.50;100.00
35553;BME280;21656;46.054;13.614;2023-03-24T17:29:48;100272.97;;;14.55;100.00
35553;BME280;21656;46.054;13.614;2023-03-24T17:32:13;100276.41;;;14.47;100.00
35553;BME280;21656;46.054;13.614;2023-03-24T17:34:43;100281.50;;;14.32;100.00
35553;BME280;21656;46.054;13.614;2023-03-24T17:37:09;100282.88;;;14.18;100.00
35553;BME280;21656;46.054;13.614;2023-03-24T17:39:35;100291.97;;;14.17;100.00
35553;BME280;21656;46.054;13.614;2023-03-24T17:42:00;100288.09;;;14.20;100.00
35553;BME280;21656;46.054;13.614;2023-03-24T17:44:26;100297.66;;;14.24;100.00
35553;BME280;21656;46.054;13.614;2023-03-24T17:46:52;100295.03;;;14.32;100.00
35553;BME280;21656;46.054;13.614;2023-03-24T17:49:17;100295.44;;;14.37;100.00
35553;BME280;21656;46.054;13.614;2023-03-24T17:51:42;100299.34;;;14.25;100.00
35553;BME280;21656;46.054;13.614;2023-03-24T17:54:08;100303.22;;;14.22;100.00
35553;BME280;21656;46.054;13.614;2023-03-24T17:56:34;100296.28;;;14.10;100.00
35553;BME280;21656;46.054;13.614;2023-03-24T17:59:00;100302.25;;;14.14;100.00
35553;BME280;21656;46.054;13.614;2023-03-24T18:01:27;100300.94;;;14.18;100.00
35553;BME280;21656;46.054;13.614;2023-03-24T18:03:53;100300.19;;;14.25;100.00
35553;BME280;21656;46.054;13.614;2023-03-24T18:06:19;100297.66;;;14.24;100.00
35553;BME280;21656;46.054;13.614;2023-03-24T18:08:44;100301.25;;;14.15;100.00
35553;BME280;21656;46.054;13.614;2023-03-24T18:11:11;100300.00;;;14.09;100.00
35553;BME280;21656;46.054;13.614;2023-03-24T18:13:36;100299.28;;;14.07;100.00
35553;BME280;21656;46.054;13.614;2023-03-24T18:16:02;100303.56;;;14.09;100.00
35553;BME280;21656;46.054;13.614;2023-03-24T18:18:28;100294.59;;;14.09;100.00
35553;BME280;21656;46.054;13.614;2023-03-24T18:20:54;100296.97;;;14.12;100.00
35553;BME280;21656;46.054;13.614;2023-03-24T18:23:20;100302.56;;;14.11;100.00
35553;BME280;21656;46.054;13.614;2023-03-24T18:25:45;100297.81;;;14.13;100.00
35553;BME280;21656;46.054;13.614;2023-03-24T18:28:10;100298.84;;;14.12;100.00
35553;BME280;21656;46.054;13.614;2023-03-24T18:30:36;100284.47;;;14.11;100.00
35553;BME280;21656;46.054;13.614;2023-03-24T18:33:01;100284.06;;;14.06;100.00
35553;BME280;21656;46.054;13.614;2023-03-24T18:35:27;100287.06;;;14.03;100.00
35553;BME280;21656;46.054;13.614;2023-03-24T18:37:53;100285.50;;;14.00;100.00
35553;BME280;21656;46.054;13.614;2023-03-24T18:40:18;100294.88;;;14.06;100.00
35553;BME280;21656;46.054;13.614;2023-03-24T18:42:44;100292.00;;;14.07;100.00
35553;BME280;21656;46.054;13.614;2023-03-24T18:45:09;100292.72;;;14.09;100.00
35553;BME280;21656;46.054;13.614;2023-03-24T18:47:42;100288.84;;;14.12;100.00
35553;BME280;21656;46.054;13.614;2023-03-24T18:50:07;100307.56;;;14.05;100.00
35553;BME280;21656;46.054;13.614;2023-03-24T18:52:32;100308.56;;;14.04;100.00
35553;BME280;21656;46.054;13.614;2023-03-24T18:54:58;100303.31;;;14.03;100.00
35553;BME280;21656;46.054;13.614;2023-03-24T18:57:25;100300.31;;;14.06;100.00
35553;BME280;21656;46.054;13.614;2023-03-24T18:59:50;100292.75;;;14.00;100.00
35553;BME280;21656;46.054;13.614;2023-03-24T19:02:17;100288.06;;;14.02;100.00
35553;BME280;21656;46.054;13.614;2023-03-24T19:04:42;100291.38;;;13.96;100.00
35553;BME280;21656;46.054;13.614;2023-03-24T19:07:07;100296.38;;;13.91;100.00
35553;BME280;21656;46.054;13.614;2023-03-24T19:09:38;100297.09;;;13.93;100.00
35553;BME280;21656;46.054;13.614;2023-03-24T19:12:03;100287.66;;;13.97;100.00
35553;BME280;21656;46.054;13.614;2023-03-24T19:14:28;100293.38;;;13.94;100.00
35553;BME280;21656;46.054;13.614;2023-03-24T19:16:54;100298.22;;;13.90;100.00
35553;BME280;21656;46.054;13.614;2023-03-24T19:19:21;100297.53;;;13.88;100.00
35553;BME280;21656;46.054;13.614;2023-03-24T19:21:46;100296.38;;;13.91;100.00
35553;BME280;21656;46.054;13.614;2023-03-24T19:24:11;100307.78;;;13.84;100.00
35553;BME280;21656;46.054;13.614;2023-03-24T19:26:37;100308.06;;;13.81;100.00
35553;BME280;21656;46.054;13.614;2023-03-24T19:29:04;100310.50;;;13.75;100.00
35553;BME280;21656;46.054;13.614;2023-03-24T19:31:30;100305.09;;;13.75;100.00
35553;BME280;21656;46.054;13.614;2023-03-24T19:33:57;100300.41;;;13.67;100.00
35553;BME280;21656;46.054;13.614;2023-03-24T19:36:22;100299.88;;;13.63;100.00
35553;BME280;21656;46.054;13.614;2023-03-24T19:38:49;100292.78;;;13.53;100.00
35553;BME280;21656;46.054;13.614;2023-03-24T19:41:16;100293.19;;;13.58;100.00
35553;BME280;21656;46.054;13.614;2023-03-24T19:43:41;100302.03;;;13.60;100.00
35553;BME280;21656;46.054;13.614;2023-03-24T19:46:07;100300.00;;;13.62;100.00
35553;BME280;21656;46.054;13.614;2023-03-24T19:48:33;100302.28;;;13.57;100.00